sensor_id;sensor_type;location;lat;lon;timestamp;temperature;humidity
72114;SHT31;59989;46.220;19.888;2023-04-06T00:01:44;-1.05;72.97
72114;SHT31;59989;46.220;19.888;2023-04-06T00:04:47;-1.14;74.05
72114;SHT31;59989;46.220;19.888;2023-04-06T00:07:50;-1.10;74.62
72114;SHT31;59989;46.220;19.888;2023-04-06T00:10:52;-1.11;74.35
72114;SHT31;59989;46.220;19.888;2023-04-06T00:13:55;-1.15;74.40
72114;SHT31;59989;46.220;19.888;2023-04-06T00:16:57;-1.24;73.93
72114;SHT31;59989;46.220;19.888;2023-04-06T00:20:00;-1.20;73.80
72114;SHT31;59989;46.220;19.888;2023-04-06T00:23:03;-1.22;74.45
72114;SHT31;59989;46.220;19.888;2023-04-06T00:26:05;-1.17;75.37
72114;SHT31;59989;46.220;19.888;2023-04-06T00:29:08;-1.22;75.94
72114;SHT31;59989;46.220;19.888;2023-04-06T00:32:11;-1.21;76.42
72114;SHT31;59989;46.220;19.888;2023-04-06T00:35:14;-1.34;76.87
72114;SHT31;59989;46.220;19.888;2023-04-06T00:38:18;-1.48;77.43
72114;SHT31;59989;46.220;19.888;2023-04-06T00:41:20;-1.47;78.55
72114;SHT31;59989;46.220;19.888;2023-04-06T00:44:23;-1.54;77.82
72114;SHT31;59989;46.220;19.888;2023-04-06T00:47:26;-1.59;77.75
72114;SHT31;59989;46.220;19.888;2023-04-06T00:50:29;-1.63;78.07
72114;SHT31;59989;46.220;19.888;2023-04-06T00:53:32;-1.59;78.61
72114;SHT31;59989;46.220;19.888;2023-04-06T00:56:36;-1.31;79.84
72114;SHT31;59989;46.220;19.888;2023-04-06T00:59:39;-1.08;78.23
72114;SHT31;59989;46.220;19.888;2023-04-06T01:02:46;-1.01;77.47
72114;SHT31;59989;46.220;19.888;2023-04-06T01:05:52;-1.18;76.55
72114;SHT31;59989;46.220;19.888;2023-04-06T01:09:05;-1.35;75.65
72114;SHT31;59989;46.220;19.888;2023-04-06T01:12:09;-1.48;75.86
72114;SHT31;59989;46.220;19.888;2023-04-06T01:15:12;-1.59;76.49
72114;SHT31;59989;46.220;19.888;2023-04-06T01:18:17;-1.82;76.32
72114;SHT31;59989;46.220;19.888;2023-04-06T01:21:31;-1.91;75.87
72114;SHT31;59989;46.220;19.888;2023-04-06T01:24:52;-1.99;75.86
72114;SHT31;59989;46.220;19.888;2023-04-06T01:28:04;-2.01;76.23
72114;SHT31;59989;46.220;19.888;2023-04-06T01:31:42;-2.13;76.86
72114;SHT31;59989;46.220;19.888;2023-04-06T01:34:44;-2.11;77.22
72114;SHT31;59989;46.220;19.888;2023-04-06T01:37:47;-2.15;76.68
72114;SHT31;59989;46.220;19.888;2023-04-06T01:40:58;-2.26;77.03
72114;SHT31;59989;46.220;19.888;2023-04-06T01:44:06;-2.36;77.19
72114;SHT31;59989;46.220;19.888;2023-04-06T01:47:09;-2.40;77.05
72114;SHT31;59989;46.220;19.888;2023-04-06T01:50:12;-2.45;76.40
72114;SHT31;59989;46.220;19.888;2023-04-06T01:53:19;-2.36;78.03
72114;SHT31;59989;46.220;19.888;2023-04-06T01:56:22;-1.83;80.80
72114;SHT31;59989;46.220;19.888;2023-04-06T01:59:36;-1.75;79.62
72114;SHT31;59989;46.220;19.888;2023-04-06T02:02:46;-1.97;79.06
72114;SHT31;59989;46.220;19.888;2023-04-06T02:05:55;-2.07;78.40
72114;SHT31;59989;46.220;19.888;2023-04-06T02:09:04;-2.21;78.77
72114;SHT31;59989;46.220;19.888;2023-04-06T02:12:08;-2.28;77.73
72114;SHT31;59989;46.220;19.888;2023-04-06T02:15:10;-2.26;78.79
72114;SHT31;59989;46.220;19.888;2023-04-06T02:18:15;-2.31;79.00
72114;SHT31;59989;46.220;19.888;2023-04-06T02:21:20;-2.27;78.60
72114;SHT31;59989;46.220;19.888;2023-04-06T02:24:22;-2.30;78.39
72114;SHT31;59989;46.220;19.888;2023-04-06T02:27:25;-2.34;78.85
72114;SHT31;59989;46.220;19.888;2023-04-06T02:30:27;-2.24;79.10
72114;SHT31;59989;46.220;19.888;2023-04-06T02:33:31;-2.30;78.55
72114;SHT31;59989;46.220;19.888;2023-04-06T02:36:34;-2.37;78.53
72114;SHT31;59989;46.220;19.888;2023-04-06T02:39:37;-2.36;78.82
72114;SHT31;59989;46.220;19.888;2023-04-06T02:42:43;-2.45;78.43
72114;SHT31;59989;46.220;19.888;2023-04-06T02:45:46;-2.49;79.06
72114;SHT31;59989;46.220;19.888;2023-04-06T02:48:49;-2.47;78.74
72114;SHT31;59989;46.220;19.888;2023-04-06T02:51:52;-2.58;78.09
72114;SHT31;59989;46.220;19.888;2023-04-06T02:55:05;-2.59;77.81
72114;SHT31;59989;46.220;19.888;2023-04-06T02:58:09;-2.54;76.51
72114;SHT31;59989;46.220;19.888;2023-04-06T03:01:26;-2.51;76.18
72114;SHT31;59989;46.220;19.888;2023-04-06T03:04:33;-2.51;75.44
72114;SHT31;59989;46.220;19.888;2023-04-06T03:07:39;-2.45;75.33
72114;SHT31;59989;46.220;19.888;2023-04-06T03:10:46;-2.37;75.09
72114;SHT31;59989;46.220;19.888;2023-04-06T03:13:51;-2.41;75.48
72114;SHT31;59989;46.220;19.888;2023-04-06T03:16:53;-2.36;75.65
72114;SHT31;59989;46.220;19.888;2023-04-06T03:19:57;-2.44;75.65
72114;SHT31;59989;46.220;19.888;2023-04-06T03:23:00;-2.51;76.22
72114;SHT31;59989;46.220;19.888;2023-04-06T03:26:06;-2.49;76.53
72114;SHT31;59989;46.220;19.888;2023-04-06T03:29:08;-2.13;78.70
72114;SHT31;59989;46.220;19.888;2023-04-06T03:32:11;-1.80;77.69
72114;SHT31;59989;46.220;19.888;2023-04-06T03:35:16;-1.65;76.73
72114;SHT31;59989;46.220;19.888;2023-04-06T03:38:18;-1.68;76.54
72114;SHT31;59989;46.220;19.888;2023-04-06T03:41:21;-1.72;76.22
72114;SHT31;59989;46.220;19.888;2023-04-06T03:44:39;-1.76;76.14
72114;SHT31;59989;46.220;19.888;2023-04-06T03:47:41;-1.85;76.26
72114;SHT31;59989;46.220;19.888;2023-04-06T03:50:44;-1.87;76.58
72114;SHT31;59989;46.220;19.888;2023-04-06T03:53:47;-1.90;76.55
72114;SHT31;59989;46.220;19.888;2023-04-06T03:56:52;-1.89;76.34
72114;SHT31;59989;46.220;19.888;2023-04-06T03:59:54;-1.85;76.64
72114;SHT31;59989;46.220;19.888;2023-04-06T04:03:01;-1.80;76.51
72114;SHT31;59989;46.220;19.888;2023-04-06T04:06:04;-1.89;76.41
72114;SHT31;59989;46.220;19.888;2023-04-06T04:09:08;-1.94;76.84
72114;SHT31;59989;46.220;19.888;2023-04-06T04:12:11;-1.90;76.39
72114;SHT31;59989;46.220;19.888;2023-04-06T04:15:13;-1.86;76.27
72114;SHT31;59989;46.220;19.888;2023-04-06T04:18:16;-1.85;75.84
72114;SHT31;59989;46.220;19.888;2023-04-06T04:21:19;-1.79;75.71
72114;SHT31;59989;46.220;19.888;2023-04-06T04:24:21;-1.78;75.62
72114;SHT31;59989;46.220;19.888;2023-04-06T04:27:25;-1.76;75.72
72114;SHT31;59989;46.220;19.888;2023-04-06T04:30:27;-1.75;75.43
72114;SHT31;59989;46.220;19.888;2023-04-06T04:33:30;-1.73;75.36
72114;SHT31;59989;46.220;19.888;2023-04-06T04:36:36;-1.69;75.46
72114;SHT31;59989;46.220;19.888;2023-04-06T04:39:42;-1.68;75.10
72114;SHT31;59989;46.220;19.888;2023-04-06T04:42:46;-1.63;74.90
72114;SHT31;59989;46.220;19.888;2023-04-06T04:45:55;-1.61;75.07
72114;SHT31;59989;46.220;19.888;2023-04-06T04:49:09;-1.58;74.64
72114;SHT31;59989;46.220;19.888;2023-04-06T04:52:13;-1.58;74.33
72114;SHT31;59989;46.220;19.888;2023-04-06T04:55:45;-1.51;74.36
72114;SHT31;59989;46.220;19.888;2023-04-06T04:58:50;-1.52;74.09
72114;SHT31;59989;46.220;19.888;2023-04-06T05:01:53;-1.48;74.45
72114;SHT31;59989;46.220;19.888;2023-04-06T05:05:04;-1.42;74.73
72114;SHT31;59989;46.220;19.888;2023-04-06T05:08:07;-1.38;74.24
72114;SHT31;59989;46.220;19.888;2023-04-06T05:11:16;-1.34;74.33
72114;SHT31;59989;46.220;19.888;2023-04-06T05:14:25;-1.25;74.09
72114;SHT31;59989;46.220;19.888;2023-04-06T05:17:30;-1.18;73.80
72114;SHT31;59989;46.220;19.888;2023-04-06T05:20:34;-1.11;73.80
72114;SHT31;59989;46.220;19.888;2023-04-06T05:23:37;-1.05;73.51
72114;SHT31;59989;46.220;19.888;2023-04-06T05:26:40;-0.97;73.33
72114;SHT31;59989;46.220;19.888;2023-04-06T05:29:53;-0.93;73.02
72114;SHT31;59989;46.220;19.888;2023-04-06T05:33:01;-0.86;73.07
72114;SHT31;59989;46.220;19.888;2023-04-06T05:36:14;-0.74;73.09
72114;SHT31;59989;46.220;19.888;2023-04-06T05:39:20;-0.68;72.86
72114;SHT31;59989;46.220;19.888;2023-04-06T05:42:25;-0.56;72.66
72114;SHT31;59989;46.220;19.888;2023-04-06T05:45:33;-0.41;72.11
72114;SHT31;59989;46.220;19.888;2023-04-06T05:48:40;-0.22;72.27
72114;SHT31;59989;46.220;19.888;2023-04-06T05:51:44;-0.08;72.21
72114;SHT31;59989;46.220;19.888;2023-04-06T05:54:46;0.06;71.72
72114;SHT31;59989;46.220;19.888;2023-04-06T05:57:49;0.14;71.29
72114;SHT31;59989;46.220;19.888;2023-04-06T06:01:00;0.28;70.74
72114;SHT31;59989;46.220;19.888;2023-04-06T06:04:11;0.50;70.85
72114;SHT31;59989;46.220;19.888;2023-04-06T06:07:15;0.64;70.44
72114;SHT31;59989;46.220;19.888;2023-04-06T06:10:22;0.84;69.97
72114;SHT31;59989;46.220;19.888;2023-04-06T06:13:26;0.96;69.68
72114;SHT31;59989;46.220;19.888;2023-04-06T06:16:29;1.09;69.31
72114;SHT31;59989;46.220;19.888;2023-04-06T06:19:33;1.30;68.17
72114;SHT31;59989;46.220;19.888;2023-04-06T06:22:39;1.53;68.94
72114;SHT31;59989;46.220;19.888;2023-04-06T06:25:46;1.58;65.73
72114;SHT31;59989;46.220;19.888;2023-04-06T06:28:49;1.81;66.29
72114;SHT31;59989;46.220;19.888;2023-04-06T06:31:51;1.98;66.23
72114;SHT31;59989;46.220;19.888;2023-04-06T06:34:54;2.09;64.61
72114;SHT31;59989;46.220;19.888;2023-04-06T06:37:56;2.22;64.70
72114;SHT31;59989;46.220;19.888;2023-04-06T06:41:02;2.36;62.28
72114;SHT31;59989;46.220;19.888;2023-04-06T06:44:08;2.47;63.05
72114;SHT31;59989;46.220;19.888;2023-04-06T06:47:11;2.40;62.88
72114;SHT31;59989;46.220;19.888;2023-04-06T06:50:13;2.54;62.77
72114;SHT31;59989;46.220;19.888;2023-04-06T06:53:16;2.73;62.34
72114;SHT31;59989;46.220;19.888;2023-04-06T06:56:19;2.91;59.93
72114;SHT31;59989;46.220;19.888;2023-04-06T06:59:21;3.07;59.69
72114;SHT31;59989;46.220;19.888;2023-04-06T07:02:25;2.97;57.01
72114;SHT31;59989;46.220;19.888;2023-04-06T07:05:27;3.08;57.48
72114;SHT31;59989;46.220;19.888;2023-04-06T07:08:32;3.23;58.66
72114;SHT31;59989;46.220;19.888;2023-04-06T07:11:35;3.40;59.84
72114;SHT31;59989;46.220;19.888;2023-04-06T07:14:38;3.56;57.91
72114;SHT31;59989;46.220;19.888;2023-04-06T07:17:41;3.66;56.57
72114;SHT31;59989;46.220;19.888;2023-04-06T07:20:44;3.50;55.78
72114;SHT31;59989;46.220;19.888;2023-04-06T07:23:46;3.83;56.26
72114;SHT31;59989;46.220;19.888;2023-04-06T07:26:51;4.11;54.13
72114;SHT31;59989;46.220;19.888;2023-04-06T07:29:54;4.46;53.45
72114;SHT31;59989;46.220;19.888;2023-04-06T07:32:57;4.39;52.09
72114;SHT31;59989;46.220;19.888;2023-04-06T07:36:02;4.44;53.84
72114;SHT31;59989;46.220;19.888;2023-04-06T07:39:07;4.66;53.03
72114;SHT31;59989;46.220;19.888;2023-04-06T07:42:11;4.80;52.62
72114;SHT31;59989;46.220;19.888;2023-04-06T07:45:13;5.00;52.64
72114;SHT31;59989;46.220;19.888;2023-04-06T07:48:18;4.70;49.69
72114;SHT31;59989;46.220;19.888;2023-04-06T07:51:20;4.90;50.68
72114;SHT31;59989;46.220;19.888;2023-04-06T07:54:23;4.95;49.64
72114;SHT31;59989;46.220;19.888;2023-04-06T07:57:26;5.14;50.08
72114;SHT31;59989;46.220;19.888;2023-04-06T08:00:30;5.42;48.75
72114;SHT31;59989;46.220;19.888;2023-04-06T08:03:35;5.48;48.65
72114;SHT31;59989;46.220;19.888;2023-04-06T08:06:38;5.62;48.20
72114;SHT31;59989;46.220;19.888;2023-04-06T08:09:41;5.67;47.73
72114;SHT31;59989;46.220;19.888;2023-04-06T08:12:43;5.90;47.22
72114;SHT31;59989;46.220;19.888;2023-04-06T08:15:46;5.87;48.47
72114;SHT31;59989;46.220;19.888;2023-04-06T08:18:48;6.09;49.86
72114;SHT31;59989;46.220;19.888;2023-04-06T08:21:51;6.21;48.52
72114;SHT31;59989;46.220;19.888;2023-04-06T08:24:54;5.93;47.72
72114;SHT31;59989;46.220;19.888;2023-04-06T08:27:56;6.44;47.87
72114;SHT31;59989;46.220;19.888;2023-04-06T08:30:59;6.46;48.08
72114;SHT31;59989;46.220;19.888;2023-04-06T08:34:05;6.27;46.88
72114;SHT31;59989;46.220;19.888;2023-04-06T08:37:08;6.53;46.26
72114;SHT31;59989;46.220;19.888;2023-04-06T08:40:12;6.56;45.56
72114;SHT31;59989;46.220;19.888;2023-04-06T08:43:17;6.78;45.50
72114;SHT31;59989;46.220;19.888;2023-04-06T08:46:23;6.72;45.23
72114;SHT31;59989;46.220;19.888;2023-04-06T08:49:32;6.89;45.77
72114;SHT31;59989;46.220;19.888;2023-04-06T08:52:37;6.93;46.17
72114;SHT31;59989;46.220;19.888;2023-04-06T08:55:42;7.07;45.42
72114;SHT31;59989;46.220;19.888;2023-04-06T08:58:45;7.47;45.37
72114;SHT31;59989;46.220;19.888;2023-04-06T09:01:48;7.48;44.40
72114;SHT31;59989;46.220;19.888;2023-04-06T09:04:53;7.47;43.95
72114;SHT31;59989;46.220;19.888;2023-04-06T09:07:56;7.75;42.21
72114;SHT31;59989;46.220;19.888;2023-04-06T09:11:01;7.85;43.63
72114;SHT31;59989;46.220;19.888;2023-04-06T09:14:03;8.06;42.57
72114;SHT31;59989;46.220;19.888;2023-04-06T09:17:06;7.51;41.00
72114;SHT31;59989;46.220;19.888;2023-04-06T09:20:09;7.99;42.52
72114;SHT31;59989;46.220;19.888;2023-04-06T09:23:19;8.13;42.83
72114;SHT31;59989;46.220;19.888;2023-04-06T09:26:22;8.40;42.41
72114;SHT31;59989;46.220;19.888;2023-04-06T09:29:26;8.63;42.78
72114;SHT31;59989;46.220;19.888;2023-04-06T09:32:29;8.46;43.45
72114;SHT31;59989;46.220;19.888;2023-04-06T09:35:32;8.74;42.42
72114;SHT31;59989;46.220;19.888;2023-04-06T09:38:52;8.84;41.27
72114;SHT31;59989;46.220;19.888;2023-04-06T09:41:55;8.95;39.33
72114;SHT31;59989;46.220;19.888;2023-04-06T09:44:58;9.50;40.87
72114;SHT31;59989;46.220;19.888;2023-04-06T09:48:01;9.06;42.17
72114;SHT31;59989;46.220;19.888;2023-04-06T09:51:04;9.04;41.83
72114;SHT31;59989;46.220;19.888;2023-04-06T09:54:09;9.48;39.83
72114;SHT31;59989;46.220;19.888;2023-04-06T10:00:25;9.36;40.45
72114;SHT31;59989;46.220;19.888;2023-04-06T10:06:43;9.11;41.16
72114;SHT31;59989;46.220;19.888;2023-04-06T10:09:50;8.58;40.72
72114;SHT31;59989;46.220;19.888;2023-04-06T10:12:54;9.23;41.90
72114;SHT31;59989;46.220;19.888;2023-04-06T10:15:59;9.42;41.58
72114;SHT31;59989;46.220;19.888;2023-04-06T10:19:11;9.44;41.62
72114;SHT31;59989;46.220;19.888;2023-04-06T10:22:24;9.90;41.00
72114;SHT31;59989;46.220;19.888;2023-04-06T10:25:28;10.21;38.58
72114;SHT31;59989;46.220;19.888;2023-04-06T10:28:33;10.29;41.01
72114;SHT31;59989;46.220;19.888;2023-04-06T10:31:41;9.63;39.23
72114;SHT31;59989;46.220;19.888;2023-04-06T10:34:44;10.48;38.38
72114;SHT31;59989;46.220;19.888;2023-04-06T10:38:07;10.21;40.77
72114;SHT31;59989;46.220;19.888;2023-04-06T10:41:11;10.02;39.20
72114;SHT31;59989;46.220;19.888;2023-04-06T10:44:20;10.64;36.87
72114;SHT31;59989;46.220;19.888;2023-04-06T10:47:24;10.71;39.16
72114;SHT31;59989;46.220;19.888;2023-04-06T10:50:28;9.73;39.32
72114;SHT31;59989;46.220;19.888;2023-04-06T10:53:33;9.50;39.93
72114;SHT31;59989;46.220;19.888;2023-04-06T10:56:37;9.87;38.81
72114;SHT31;59989;46.220;19.888;2023-04-06T10:59:44;9.95;39.89
72114;SHT31;59989;46.220;19.888;2023-04-06T11:02:47;10.22;39.13
72114;SHT31;59989;46.220;19.888;2023-04-06T11:05:51;10.98;38.61
72114;SHT31;59989;46.220;19.888;2023-04-06T11:08:54;10.80;38.10
72114;SHT31;59989;46.220;19.888;2023-04-06T11:11:57;10.77;37.30
72114;SHT31;59989;46.220;19.888;2023-04-06T11:15:02;10.90;38.51
72114;SHT31;59989;46.220;19.888;2023-04-06T11:18:06;10.69;39.80
72114;SHT31;59989;46.220;19.888;2023-04-06T11:21:13;10.94;39.12
72114;SHT31;59989;46.220;19.888;2023-04-06T11:24:23;10.94;39.36
72114;SHT31;59989;46.220;19.888;2023-04-06T11:27:26;10.25;36.83
72114;SHT31;59989;46.220;19.888;2023-04-06T11:30:33;9.55;39.86
72114;SHT31;59989;46.220;19.888;2023-04-06T11:33:38;10.25;39.58
72114;SHT31;59989;46.220;19.888;2023-04-06T11:36:43;10.13;39.54
72114;SHT31;59989;46.220;19.888;2023-04-06T11:39:51;9.88;37.86
72114;SHT31;59989;46.220;19.888;2023-04-06T11:42:55;10.61;38.13
72114;SHT31;59989;46.220;19.888;2023-04-06T11:46:02;10.96;37.24
72114;SHT31;59989;46.220;19.888;2023-04-06T11:49:05;11.80;33.82
72114;SHT31;59989;46.220;19.888;2023-04-06T11:52:19;11.79;35.00
72114;SHT31;59989;46.220;19.888;2023-04-06T11:55:22;11.45;33.33
72114;SHT31;59989;46.220;19.888;2023-04-06T11:58:24;12.38;32.89
72114;SHT31;59989;46.220;19.888;2023-04-06T12:01:28;11.89;34.92
72114;SHT31;59989;46.220;19.888;2023-04-06T12:04:32;12.31;32.38
72114;SHT31;59989;46.220;19.888;2023-04-06T12:07:34;12.58;31.77
72114;SHT31;59989;46.220;19.888;2023-04-06T12:10:38;12.07;34.98
72114;SHT31;59989;46.220;19.888;2023-04-06T12:13:40;11.40;35.33
72114;SHT31;59989;46.220;19.888;2023-04-06T12:16:43;11.34;34.17
72114;SHT31;59989;46.220;19.888;2023-04-06T12:19:46;11.40;35.78
72114;SHT31;59989;46.220;19.888;2023-04-06T12:22:48;11.06;35.86
72114;SHT31;59989;46.220;19.888;2023-04-06T12:25:51;10.50;35.89
72114;SHT31;59989;46.220;19.888;2023-04-06T12:28:54;10.49;36.78
72114;SHT31;59989;46.220;19.888;2023-04-06T12:31:56;10.66;36.20
72114;SHT31;59989;46.220;19.888;2023-04-06T12:34:59;10.29;36.62
72114;SHT31;59989;46.220;19.888;2023-04-06T12:38:03;10.45;38.05
72114;SHT31;59989;46.220;19.888;2023-04-06T12:41:09;10.49;38.31
72114;SHT31;59989;46.220;19.888;2023-04-06T12:44:12;10.56;37.34
72114;SHT31;59989;46.220;19.888;2023-04-06T12:47:14;11.31;36.06
72114;SHT31;59989;46.220;19.888;2023-04-06T12:50:17;12.06;36.23
72114;SHT31;59989;46.220;19.888;2023-04-06T12:53:20;11.36;36.25
72114;SHT31;59989;46.220;19.888;2023-04-06T12:56:22;10.09;37.40
72114;SHT31;59989;46.220;19.888;2023-04-06T12:59:25;10.43;37.30
72114;SHT31;59989;46.220;19.888;2023-04-06T13:02:28;10.08;37.00
72114;SHT31;59989;46.220;19.888;2023-04-06T13:05:30;10.12;37.64
72114;SHT31;59989;46.220;19.888;2023-04-06T13:08:35;10.13;37.19
72114;SHT31;59989;46.220;19.888;2023-04-06T13:11:41;9.91;37.24
72114;SHT31;59989;46.220;19.888;2023-04-06T13:14:44;10.01;38.74
72114;SHT31;59989;46.220;19.888;2023-04-06T13:17:46;10.43;36.90
72114;SHT31;59989;46.220;19.888;2023-04-06T13:20:49;10.48;36.62
72114;SHT31;59989;46.220;19.888;2023-04-06T13:23:52;11.01;37.47
72114;SHT31;59989;46.220;19.888;2023-04-06T13:26:54;12.13;35.02
72114;SHT31;59989;46.220;19.888;2023-04-06T13:29:57;10.81;36.99
72114;SHT31;59989;46.220;19.888;2023-04-06T13:33:00;9.67;37.46
72114;SHT31;59989;46.220;19.888;2023-04-06T13:36:03;9.34;38.48
72114;SHT31;59989;46.220;19.888;2023-04-06T13:39:06;8.95;39.19
72114;SHT31;59989;46.220;19.888;2023-04-06T13:42:08;8.79;39.96
72114;SHT31;59989;46.220;19.888;2023-04-06T13:45:12;8.76;39.29
72114;SHT31;59989;46.220;19.888;2023-04-06T13:48:15;8.71;40.22
72114;SHT31;59989;46.220;19.888;2023-04-06T13:51:18;8.76;40.64
72114;SHT31;59989;46.220;19.888;2023-04-06T13:54:21;8.88;41.83
72114;SHT31;59989;46.220;19.888;2023-04-06T13:57:23;9.15;40.85
72114;SHT31;59989;46.220;19.888;2023-04-06T14:00:26;9.04;40.34
72114;SHT31;59989;46.220;19.888;2023-04-06T14:03:28;8.86;41.60
72114;SHT31;59989;46.220;19.888;2023-04-06T14:06:31;8.74;41.21
72114;SHT31;59989;46.220;19.888;2023-04-06T14:09:33;8.85;41.13
72114;SHT31;59989;46.220;19.888;2023-04-06T14:12:35;8.89;40.86
72114;SHT31;59989;46.220;19.888;2023-04-06T14:15:38;8.92;40.99
72114;SHT31;59989;46.220;19.888;2023-04-06T14:18:41;8.91;41.12
72114;SHT31;59989;46.220;19.888;2023-04-06T14:21:45;8.84;41.28
72114;SHT31;59989;46.220;19.888;2023-04-06T14:24:47;8.88;41.80
72114;SHT31;59989;46.220;19.888;2023-04-06T14:27:50;8.48;42.21
72114;SHT31;59989;46.220;19.888;2023-04-06T14:30:53;8.58;42.09
72114;SHT31;59989;46.220;19.888;2023-04-06T14:33:55;8.69;43.58
72114;SHT31;59989;46.220;19.888;2023-04-06T14:36:58;8.61;43.71
72114;SHT31;59989;46.220;19.888;2023-04-06T14:40:02;8.27;43.43
72114;SHT31;59989;46.220;19.888;2023-04-06T14:43:05;8.06;44.37
72114;SHT31;59989;46.220;19.888;2023-04-06T14:46:08;7.88;46.19
72114;SHT31;59989;46.220;19.888;2023-04-06T14:49:10;7.62;47.35
72114;SHT31;59989;46.220;19.888;2023-04-06T14:52:13;7.58;49.29
72114;SHT31;59989;46.220;19.888;2023-04-06T14:55:15;7.41;49.70
72114;SHT31;59989;46.220;19.888;2023-04-06T14:58:19;7.40;48.50
72114;SHT31;59989;46.220;19.888;2023-04-06T15:01:22;7.30;48.63
72114;SHT31;59989;46.220;19.888;2023-04-06T15:04:24;7.04;49.16
72114;SHT31;59989;46.220;19.888;2023-04-06T15:07:27;6.85;51.14
72114;SHT31;59989;46.220;19.888;2023-04-06T15:10:33;6.61;51.48
72114;SHT31;59989;46.220;19.888;2023-04-06T15:13:35;6.73;51.53
72114;SHT31;59989;46.220;19.888;2023-04-06T15:16:38;6.76;51.12
72114;SHT31;59989;46.220;19.888;2023-04-06T15:19:40;6.93;50.90
72114;SHT31;59989;46.220;19.888;2023-04-06T15:22:43;6.97;50.43
72114;SHT31;59989;46.220;19.888;2023-04-06T15:25:46;6.86;49.51
72114;SHT31;59989;46.220;19.888;2023-04-06T15:28:49;6.93;50.24
72114;SHT31;59989;46.220;19.888;2023-04-06T15:31:51;6.67;48.68
72114;SHT31;59989;46.220;19.888;2023-04-06T15:34:57;6.55;49.89
72114;SHT31;59989;46.220;19.888;2023-04-06T15:37:59;6.46;49.86
72114;SHT31;59989;46.220;19.888;2023-04-06T15:41:03;6.34;50.49
72114;SHT31;59989;46.220;19.888;2023-04-06T15:44:06;6.30;50.42
72114;SHT31;59989;46.220;19.888;2023-04-06T15:47:09;6.24;51.29
72114;SHT31;59989;46.220;19.888;2023-04-06T15:50:13;5.92;53.31
72114;SHT31;59989;46.220;19.888;2023-04-06T15:53:16;5.72;55.41
72114;SHT31;59989;46.220;19.888;2023-04-06T15:56:18;5.63;57.94
72114;SHT31;59989;46.220;19.888;2023-04-06T15:59:21;5.20;62.38
72114;SHT31;59989;46.220;19.888;2023-04-06T16:02:23;4.91;65.88
72114;SHT31;59989;46.220;19.888;2023-04-06T16:05:28;4.76;67.99
72114;SHT31;59989;46.220;19.888;2023-04-06T16:08:35;4.73;67.71
72114;SHT31;59989;46.220;19.888;2023-04-06T16:11:38;4.79;67.37
72114;SHT31;59989;46.220;19.888;2023-04-06T16:14:40;4.60;67.84
72114;SHT31;59989;46.220;19.888;2023-04-06T16:17:43;4.62;68.72
72114;SHT31;59989;46.220;19.888;2023-04-06T16:20:45;4.73;69.04
72114;SHT31;59989;46.220;19.888;2023-04-06T16:23:48;4.57;66.89
72114;SHT31;59989;46.220;19.888;2023-04-06T16:26:50;4.66;66.69
72114;SHT31;59989;46.220;19.888;2023-04-06T16:29:53;4.66;66.23
72114;SHT31;59989;46.220;19.888;2023-04-06T16:32:56;4.65;65.23
72114;SHT31;59989;46.220;19.888;2023-04-06T16:35:58;4.65;66.53
72114;SHT31;59989;46.220;19.888;2023-04-06T16:39:01;4.53;66.42
72114;SHT31;59989;46.220;19.888;2023-04-06T16:42:03;4.56;67.50
72114;SHT31;59989;46.220;19.888;2023-04-06T16:45:06;4.60;67.68
72114;SHT31;59989;46.220;19.888;2023-04-06T16:48:09;4.42;68.54
72114;SHT31;59989;46.220;19.888;2023-04-06T16:51:13;4.36;69.84
72114;SHT31;59989;46.220;19.888;2023-04-06T16:54:16;4.25;70.92
72114;SHT31;59989;46.220;19.888;2023-04-06T16:57:18;4.12;71.91
72114;SHT31;59989;46.220;19.888;2023-04-06T17:00:21;4.05;74.09
72114;SHT31;59989;46.220;19.888;2023-04-06T17:03:24;3.95;76.00
72114;SHT31;59989;46.220;19.888;2023-04-06T17:06:29;3.87;79.15
72114;SHT31;59989;46.220;19.888;2023-04-06T17:09:32;3.80;80.52
72114;SHT31;59989;46.220;19.888;2023-04-06T17:12:39;3.73;81.62
72114;SHT31;59989;46.220;19.888;2023-04-06T17:15:42;3.67;82.37
72114;SHT31;59989;46.220;19.888;2023-04-06T17:18:44;3.64;83.07
72114;SHT31;59989;46.220;19.888;2023-04-06T17:21:47;3.55;83.41
72114;SHT31;59989;46.220;19.888;2023-04-06T17:24:49;3.53;83.70
72114;SHT31;59989;46.220;19.888;2023-04-06T17:27:52;3.47;84.25
72114;SHT31;59989;46.220;19.888;2023-04-06T17:30:56;3.52;84.67
72114;SHT31;59989;46.220;19.888;2023-04-06T17:33:59;3.49;84.95
72114;SHT31;59989;46.220;19.888;2023-04-06T17:37:02;3.49;85.29
72114;SHT31;59989;46.220;19.888;2023-04-06T17:40:05;3.46;85.39
72114;SHT31;59989;46.220;19.888;2023-04-06T17:43:08;3.39;84.42
72114;SHT31;59989;46.220;19.888;2023-04-06T17:46:10;3.42;84.64
72114;SHT31;59989;46.220;19.888;2023-04-06T17:49:12;3.40;85.47
72114;SHT31;59989;46.220;19.888;2023-04-06T17:52:15;3.36;84.60
72114;SHT31;59989;46.220;19.888;2023-04-06T17:55:18;3.38;85.33
72114;SHT31;59989;46.220;19.888;2023-04-06T17:58:24;3.40;86.00
72114;SHT31;59989;46.220;19.888;2023-04-06T18:01:27;3.42;86.52
72114;SHT31;59989;46.220;19.888;2023-04-06T18:04:31;3.28;86.11
72114;SHT31;59989;46.220;19.888;2023-04-06T18:07:33;3.22;86.27
72114;SHT31;59989;46.220;19.888;2023-04-06T18:10:36;3.22;86.96
72114;SHT31;59989;46.220;19.888;2023-04-06T18:13:40;3.13;87.17
72114;SHT31;59989;46.220;19.888;2023-04-06T18:16:42;3.16;87.55
72114;SHT31;59989;46.220;19.888;2023-04-06T18:19:46;3.09;87.68
72114;SHT31;59989;46.220;19.888;2023-04-06T18:22:48;3.05;87.96
72114;SHT31;59989;46.220;19.888;2023-04-06T18:25:52;2.99;88.14
72114;SHT31;59989;46.220;19.888;2023-04-06T18:28:54;2.92;87.97
72114;SHT31;59989;46.220;19.888;2023-04-06T18:31:57;2.91;88.47
72114;SHT31;59989;46.220;19.888;2023-04-06T18:34:59;2.80;88.84
72114;SHT31;59989;46.220;19.888;2023-04-06T18:38:02;2.76;89.05
72114;SHT31;59989;46.220;19.888;2023-04-06T18:41:04;2.71;88.91
72114;SHT31;59989;46.220;19.888;2023-04-06T18:44:07;2.71;89.11
72114;SHT31;59989;46.220;19.888;2023-04-06T18:47:09;2.56;89.04
72114;SHT31;59989;46.220;19.888;2023-04-06T18:50:12;2.56;89.38
72114;SHT31;59989;46.220;19.888;2023-04-06T18:53:15;2.49;89.15
72114;SHT31;59989;46.220;19.888;2023-04-06T18:56:18;2.41;89.25
72114;SHT31;59989;46.220;19.888;2023-04-06T18:59:22;2.44;89.19
72114;SHT31;59989;46.220;19.888;2023-04-06T19:02:24;2.47;89.59
72114;SHT31;59989;46.220;19.888;2023-04-06T19:05:27;2.44;89.37
72114;SHT31;59989;46.220;19.888;2023-04-06T19:08:30;2.50;89.43
72114;SHT31;59989;46.220;19.888;2023-04-06T19:11:32;2.50;89.14
72114;SHT31;59989;46.220;19.888;2023-04-06T19:14:35;2.50;89.33
72114;SHT31;59989;46.220;19.888;2023-04-06T19:17:37;2.54;89.18
72114;SHT31;59989;46.220;19.888;2023-04-06T19:20:40;2.56;89.27
72114;SHT31;59989;46.220;19.888;2023-04-06T19:23:44;2.56;89.62